sensor_id;sensor_type;location;lat;lon;timestamp;temperature;humidity
5705;DHT22;2877;48.238;11.160;2022-12-29T00:01:21;4.70;99.90
5705;DHT22;2877;48.238;11.160;2022-12-29T00:03:47;4.70;99.90
5705;DHT22;2877;48.238;11.160;2022-12-29T00:06:13;4.70;99.90
5705;DHT22;2877;48.238;11.160;2022-12-29T00:08:38;4.80;99.90
5705;DHT22;2877;48.238;11.160;2022-12-29T00:11:15;4.80;99.90
5705;DHT22;2877;48.238;11.160;2022-12-29T00:13:42;4.70;99.90
5705;DHT22;2877;48.238;11.160;2022-12-29T00:16:27;4.70;99.90
5705;DHT22;2877;48.238;11.160;2022-12-29T00:18:52;4.70;99.90
5705;DHT22;2877;48.238;11.160;2022-12-29T00:21:20;4.70;99.90
5705;DHT22;2877;48.238;11.160;2022-12-29T00:24:05;4.70;99.90
5705;DHT22;2877;48.238;11.160;2022-12-29T00:26:34;4.60;99.90
5705;DHT22;2877;48.238;11.160;2022-12-29T00:29:18;4.60;99.90
5705;DHT22;2877;48.238;11.160;2022-12-29T00:32:03;4.60;99.90
5705;DHT22;2877;48.238;11.160;2022-12-29T00:34:48;4.50;99.90
5705;DHT22;2877;48.238;11.160;2022-12-29T00:37:32;4.50;99.90
5705;DHT22;2877;48.238;11.160;2022-12-29T00:40:16;4.50;99.90
5705;DHT22;2877;48.238;11.160;2022-12-29T00:43:00;4.40;99.90
5705;DHT22;2877;48.238;11.160;2022-12-29T00:45:44;4.40;99.90
5705;DHT22;2877;48.238;11.160;2022-12-29T00:48:10;4.40;99.90
5705;DHT22;2877;48.238;11.160;2022-12-29T00:50:35;4.30;99.90
5705;DHT22;2877;48.238;11.160;2022-12-29T00:53:01;4.30;99.90
5705;DHT22;2877;48.238;11.160;2022-12-29T00:55:26;4.30;99.90
5705;DHT22;2877;48.238;11.160;2022-12-29T00:57:52;4.30;99.90
5705;DHT22;2877;48.238;11.160;2022-12-29T01:00:17;4.20;99.90
5705;DHT22;2877;48.238;11.160;2022-12-29T01:02:43;4.20;99.90
5705;DHT22;2877;48.238;11.160;2022-12-29T01:05:08;4.20;99.90
5705;DHT22;2877;48.238;11.160;2022-12-29T01:07:34;4.20;99.90
5705;DHT22;2877;48.238;11.160;2022-12-29T01:09:59;4.20;99.90
5705;DHT22;2877;48.238;11.160;2022-12-29T01:12:37;4.10;99.90
5705;DHT22;2877;48.238;11.160;2022-12-29T01:15:08;4.10;99.90
5705;DHT22;2877;48.238;11.160;2022-12-29T01:17:34;4.20;99.90
5705;DHT22;2877;48.238;11.160;2022-12-29T01:20:01;4.20;99.90
5705;DHT22;2877;48.238;11.160;2022-12-29T01:22:26;4.20;99.90
5705;DHT22;2877;48.238;11.160;2022-12-29T01:24:52;4.30;99.90
5705;DHT22;2877;48.238;11.160;2022-12-29T01:27:17;4.30;99.90
5705;DHT22;2877;48.238;11.160;2022-12-29T01:29:43;4.30;99.90
5705;DHT22;2877;48.238;11.160;2022-12-29T01:32:08;4.30;99.90
5705;DHT22;2877;48.238;11.160;2022-12-29T01:34:34;4.20;99.90
5705;DHT22;2877;48.238;11.160;2022-12-29T01:37:00;4.20;99.90
5705;DHT22;2877;48.238;11.160;2022-12-29T01:39:25;4.10;99.90
5705;DHT22;2877;48.238;11.160;2022-12-29T01:41:51;4.10;99.90
5705;DHT22;2877;48.238;11.160;2022-12-29T01:44:50;4.10;99.90
5705;DHT22;2877;48.238;11.160;2022-12-29T01:47:28;4.10;99.90
5705;DHT22;2877;48.238;11.160;2022-12-29T01:49:57;4.20;99.90
5705;DHT22;2877;48.238;11.160;2022-12-29T01:52:27;4.20;99.90
5705;DHT22;2877;48.238;11.160;2022-12-29T01:54:55;4.30;99.90
5705;DHT22;2877;48.238;11.160;2022-12-29T01:57:31;4.30;99.90
5705;DHT22;2877;48.238;11.160;2022-12-29T02:00:03;4.40;99.90
5705;DHT22;2877;48.238;11.160;2022-12-29T02:02:30;4.40;99.90
5705;DHT22;2877;48.238;11.160;2022-12-29T02:04:58;4.40;99.90
5705;DHT22;2877;48.238;11.160;2022-12-29T02:07:26;4.50;99.90
5705;DHT22;2877;48.238;11.160;2022-12-29T02:09:54;4.50;99.90
5705;DHT22;2877;48.238;11.160;2022-12-29T02:12:21;4.50;99.90
5705;DHT22;2877;48.238;11.160;2022-12-29T02:14:51;4.60;99.90
5705;DHT22;2877;48.238;11.160;2022-12-29T02:31:17;4.90;99.90
5705;DHT22;2877;48.238;11.160;2022-12-29T02:42:04;5.10;99.90
5705;DHT22;2877;48.238;11.160;2022-12-29T02:47:14;5.20;99.90
5705;DHT22;2877;48.238;11.160;2022-12-29T02:49:45;5.20;99.90
5705;DHT22;2877;48.238;11.160;2022-12-29T02:52:18;5.30;99.90
5705;DHT22;2877;48.238;11.160;2022-12-29T02:54:48;5.30;99.90
5705;DHT22;2877;48.238;11.160;2022-12-29T02:59:49;5.30;99.90
5705;DHT22;2877;48.238;11.160;2022-12-29T03:13:08;5.50;99.90
5705;DHT22;2877;48.238;11.160;2022-12-29T03:16:02;5.50;99.90
5705;DHT22;2877;48.238;11.160;2022-12-29T03:18:44;5.50;99.90
5705;DHT22;2877;48.238;11.160;2022-12-29T03:23:46;5.60;99.90
5705;DHT22;2877;48.238;11.160;2022-12-29T03:26:15;5.60;99.90
5705;DHT22;2877;48.238;11.160;2022-12-29T03:28:53;5.60;99.90
5705;DHT22;2877;48.238;11.160;2022-12-29T03:31:20;5.60;99.90
5705;DHT22;2877;48.238;11.160;2022-12-29T03:33:47;5.60;99.90
5705;DHT22;2877;48.238;11.160;2022-12-29T03:36:21;5.60;99.90
5705;DHT22;2877;48.238;11.160;2022-12-29T03:39:08;5.60;99.90
5705;DHT22;2877;48.238;11.160;2022-12-29T03:41:37;5.60;99.90
5705;DHT22;2877;48.238;11.160;2022-12-29T03:44:06;5.60;99.90
5705;DHT22;2877;48.238;11.160;2022-12-29T03:46:31;5.70;99.90
5705;DHT22;2877;48.238;11.160;2022-12-29T03:48:57;5.70;99.90
5705;DHT22;2877;48.238;11.160;2022-12-29T03:51:22;5.70;99.90
5705;DHT22;2877;48.238;11.160;2022-12-29T03:53:48;5.80;99.90
5705;DHT22;2877;48.238;11.160;2022-12-29T03:56:13;5.80;99.90
5705;DHT22;2877;48.238;11.160;2022-12-29T03:58:39;5.80;99.90
5705;DHT22;2877;48.238;11.160;2022-12-29T04:01:04;5.80;99.90
5705;DHT22;2877;48.238;11.160;2022-12-29T04:03:30;5.80;99.90
5705;DHT22;2877;48.238;11.160;2022-12-29T04:05:55;5.80;99.90
5705;DHT22;2877;48.238;11.160;2022-12-29T04:08:21;5.80;99.90
5705;DHT22;2877;48.238;11.160;2022-12-29T04:10:48;5.80;99.90
5705;DHT22;2877;48.238;11.160;2022-12-29T04:13:14;5.80;99.70
5705;DHT22;2877;48.238;11.160;2022-12-29T04:15:40;5.80;99.50
5705;DHT22;2877;48.238;11.160;2022-12-29T04:18:06;5.90;98.80
5705;DHT22;2877;48.238;11.160;2022-12-29T04:20:32;5.90;98.90
5705;DHT22;2877;48.238;11.160;2022-12-29T04:23:16;6.00;98.90
5705;DHT22;2877;48.238;11.160;2022-12-29T04:25:45;6.00;98.80
5705;DHT22;2877;48.238;11.160;2022-12-29T04:28:11;6.00;98.70
5705;DHT22;2877;48.238;11.160;2022-12-29T04:30:37;6.10;98.30
5705;DHT22;2877;48.238;11.160;2022-12-29T04:33:02;6.10;98.20
5705;DHT22;2877;48.238;11.160;2022-12-29T04:35:28;6.10;97.60
5705;DHT22;2877;48.238;11.160;2022-12-29T04:37:53;6.20;97.70
5705;DHT22;2877;48.238;11.160;2022-12-29T04:40:19;6.10;97.00
5705;DHT22;2877;48.238;11.160;2022-12-29T04:42:44;6.20;97.00
5705;DHT22;2877;48.238;11.160;2022-12-29T04:45:10;6.20;96.60
5705;DHT22;2877;48.238;11.160;2022-12-29T04:47:36;6.20;97.00
5705;DHT22;2877;48.238;11.160;2022-12-29T04:50:02;6.20;96.60
5705;DHT22;2877;48.238;11.160;2022-12-29T04:52:27;6.10;96.60
5705;DHT22;2877;48.238;11.160;2022-12-29T04:54:53;6.20;96.40
5705;DHT22;2877;48.238;11.160;2022-12-29T04:57:18;6.20;96.70
5705;DHT22;2877;48.238;11.160;2022-12-29T04:59:44;6.20;96.80
5705;DHT22;2877;48.238;11.160;2022-12-29T05:02:09;6.20;97.00
5705;DHT22;2877;48.238;11.160;2022-12-29T05:04:35;6.10;96.90
5705;DHT22;2877;48.238;11.160;2022-12-29T05:07:00;6.10;96.40
5705;DHT22;2877;48.238;11.160;2022-12-29T05:09:26;6.10;96.40
5705;DHT22;2877;48.238;11.160;2022-12-29T05:11:51;6.20;97.10
5705;DHT22;2877;48.238;11.160;2022-12-29T05:14:17;6.20;96.20
5705;DHT22;2877;48.238;11.160;2022-12-29T05:16:42;6.20;96.80
5705;DHT22;2877;48.238;11.160;2022-12-29T05:19:08;6.20;96.50
5705;DHT22;2877;48.238;11.160;2022-12-29T05:21:34;6.20;96.80
5705;DHT22;2877;48.238;11.160;2022-12-29T05:23:59;6.20;96.60
5705;DHT22;2877;48.238;11.160;2022-12-29T05:26:25;6.20;96.70
5705;DHT22;2877;48.238;11.160;2022-12-29T05:28:50;6.20;96.40
5705;DHT22;2877;48.238;11.160;2022-12-29T05:31:16;6.20;96.20
5705;DHT22;2877;48.238;11.160;2022-12-29T05:33:41;6.20;96.50
5705;DHT22;2877;48.238;11.160;2022-12-29T05:36:08;6.20;96.90
5705;DHT22;2877;48.238;11.160;2022-12-29T05:38:34;6.20;96.10
5705;DHT22;2877;48.238;11.160;2022-12-29T05:41:00;6.10;96.50
5705;DHT22;2877;48.238;11.160;2022-12-29T05:43:26;6.20;96.50
5705;DHT22;2877;48.238;11.160;2022-12-29T05:45:53;6.20;96.00
5705;DHT22;2877;48.238;11.160;2022-12-29T05:48:19;6.30;95.90
5705;DHT22;2877;48.238;11.160;2022-12-29T05:50:48;6.30;96.00
5705;DHT22;2877;48.238;11.160;2022-12-29T05:53:14;6.30;96.30
5705;DHT22;2877;48.238;11.160;2022-12-29T05:55:40;6.30;96.40
5705;DHT22;2877;48.238;11.160;2022-12-29T05:58:05;6.30;96.00
5705;DHT22;2877;48.238;11.160;2022-12-29T06:00:31;6.30;96.30
5705;DHT22;2877;48.238;11.160;2022-12-29T06:02:57;6.30;96.80
5705;DHT22;2877;48.238;11.160;2022-12-29T06:05:23;6.20;96.90
5705;DHT22;2877;48.238;11.160;2022-12-29T06:07:48;6.20;96.50
5705;DHT22;2877;48.238;11.160;2022-12-29T06:10:14;6.20;96.40
5705;DHT22;2877;48.238;11.160;2022-12-29T06:12:39;6.20;97.10
5705;DHT22;2877;48.238;11.160;2022-12-29T06:15:05;6.40;96.20
5705;DHT22;2877;48.238;11.160;2022-12-29T06:17:32;6.60;95.90
5705;DHT22;2877;48.238;11.160;2022-12-29T06:19:57;6.70;95.00
5705;DHT22;2877;48.238;11.160;2022-12-29T06:22:23;6.90;95.20
5705;DHT22;2877;48.238;11.160;2022-12-29T06:24:49;7.00;95.50
5705;DHT22;2877;48.238;11.160;2022-12-29T06:27:14;7.10;95.50
5705;DHT22;2877;48.238;11.160;2022-12-29T06:29:40;7.10;94.40
5705;DHT22;2877;48.238;11.160;2022-12-29T06:32:06;7.10;94.20
5705;DHT22;2877;48.238;11.160;2022-12-29T06:34:32;7.40;94.00
5705;DHT22;2877;48.238;11.160;2022-12-29T06:36:57;7.50;94.60
5705;DHT22;2877;48.238;11.160;2022-12-29T06:39:23;7.50;94.60
5705;DHT22;2877;48.238;11.160;2022-12-29T06:41:52;7.50;95.30
5705;DHT22;2877;48.238;11.160;2022-12-29T06:44:17;7.50;95.00
5705;DHT22;2877;48.238;11.160;2022-12-29T06:46:43;7.40;95.20
5705;DHT22;2877;48.238;11.160;2022-12-29T06:49:08;7.50;94.80
5705;DHT22;2877;48.238;11.160;2022-12-29T06:51:34;7.50;95.00
5705;DHT22;2877;48.238;11.160;2022-12-29T06:54:00;7.50;94.30
5705;DHT22;2877;48.238;11.160;2022-12-29T06:56:25;7.50;94.70
5705;DHT22;2877;48.238;11.160;2022-12-29T06:58:51;7.50;94.90
5705;DHT22;2877;48.238;11.160;2022-12-29T07:01:16;7.50;94.30
5705;DHT22;2877;48.238;11.160;2022-12-29T07:03:42;7.40;94.70
5705;DHT22;2877;48.238;11.160;2022-12-29T07:06:08;7.40;94.00
5705;DHT22;2877;48.238;11.160;2022-12-29T07:08:34;7.20;94.00
5705;DHT22;2877;48.238;11.160;2022-12-29T07:10:59;7.20;93.40
5705;DHT22;2877;48.238;11.160;2022-12-29T07:13:25;7.20;93.40
5705;DHT22;2877;48.238;11.160;2022-12-29T07:15:50;7.20;93.10
5705;DHT22;2877;48.238;11.160;2022-12-29T07:18:16;7.20;93.00
5705;DHT22;2877;48.238;11.160;2022-12-29T07:20:41;7.30;93.50
5705;DHT22;2877;48.238;11.160;2022-12-29T07:23:07;7.40;94.10
5705;DHT22;2877;48.238;11.160;2022-12-29T07:25:32;7.40;94.40
5705;DHT22;2877;48.238;11.160;2022-12-29T07:28:00;7.40;94.40
5705;DHT22;2877;48.238;11.160;2022-12-29T07:30:26;7.60;94.20
5705;DHT22;2877;48.238;11.160;2022-12-29T07:32:51;7.60;94.60
5705;DHT22;2877;48.238;11.160;2022-12-29T07:35:17;7.60;94.60
5705;DHT22;2877;48.238;11.160;2022-12-29T07:37:42;7.60;94.80
5705;DHT22;2877;48.238;11.160;2022-12-29T07:40:10;7.60;95.00
5705;DHT22;2877;48.238;11.160;2022-12-29T07:42:35;7.60;95.50
5705;DHT22;2877;48.238;11.160;2022-12-29T07:45:01;7.60;94.80
5705;DHT22;2877;48.238;11.160;2022-12-29T07:47:27;7.60;95.40
5705;DHT22;2877;48.238;11.160;2022-12-29T07:49:52;7.50;93.70
5705;DHT22;2877;48.238;11.160;2022-12-29T07:52:18;7.50;94.10
5705;DHT22;2877;48.238;11.160;2022-12-29T07:54:44;7.50;94.60
5705;DHT22;2877;48.238;11.160;2022-12-29T07:57:09;7.50;94.10
5705;DHT22;2877;48.238;11.160;2022-12-29T07:59:35;7.50;94.10
5705;DHT22;2877;48.238;11.160;2022-12-29T08:02:00;7.60;92.90
5705;DHT22;2877;48.238;11.160;2022-12-29T08:04:26;7.60;93.90
5705;DHT22;2877;48.238;11.160;2022-12-29T08:06:52;7.60;93.70
5705;DHT22;2877;48.238;11.160;2022-12-29T08:09:17;7.70;94.20
5705;DHT22;2877;48.238;11.160;2022-12-29T08:11:43;7.70;94.40
5705;DHT22;2877;48.238;11.160;2022-12-29T08:14:09;7.80;94.80
5705;DHT22;2877;48.238;11.160;2022-12-29T08:16:35;7.80;95.20
5705;DHT22;2877;48.238;11.160;2022-12-29T08:19:01;7.80;95.80
5705;DHT22;2877;48.238;11.160;2022-12-29T08:21:28;7.90;95.70
5705;DHT22;2877;48.238;11.160;2022-12-29T08:23:53;8.00;96.60
5705;DHT22;2877;48.238;11.160;2022-12-29T08:26:19;8.00;95.70
5705;DHT22;2877;48.238;11.160;2022-12-29T08:28:45;8.10;96.00
5705;DHT22;2877;48.238;11.160;2022-12-29T08:31:10;8.20;95.10
5705;DHT22;2877;48.238;11.160;2022-12-29T08:33:36;8.30;94.70
5705;DHT22;2877;48.238;11.160;2022-12-29T08:36:06;8.40;95.00
5705;DHT22;2877;48.238;11.160;2022-12-29T08:38:32;8.40;94.90
5705;DHT22;2877;48.238;11.160;2022-12-29T08:40:58;8.50;95.20
5705;DHT22;2877;48.238;11.160;2022-12-29T08:43:24;8.60;94.90
5705;DHT22;2877;48.238;11.160;2022-12-29T08:45:50;8.70;95.30
5705;DHT22;2877;48.238;11.160;2022-12-29T08:48:16;8.80;95.60
5705;DHT22;2877;48.238;11.160;2022-12-29T08:50:45;8.80;95.00
5705;DHT22;2877;48.238;11.160;2022-12-29T08:53:11;8.80;95.20
5705;DHT22;2877;48.238;11.160;2022-12-29T08:55:37;8.90;95.00
5705;DHT22;2877;48.238;11.160;2022-12-29T08:58:02;9.00;95.20
5705;DHT22;2877;48.238;11.160;2022-12-29T09:00:28;9.10;94.90
5705;DHT22;2877;48.238;11.160;2022-12-29T09:02:53;9.20;94.70
5705;DHT22;2877;48.238;11.160;2022-12-29T09:05:19;9.30;94.80
5705;DHT22;2877;48.238;11.160;2022-12-29T09:07:45;9.50;95.40
5705;DHT22;2877;48.238;11.160;2022-12-29T09:10:10;9.60;95.00
5705;DHT22;2877;48.238;11.160;2022-12-29T09:12:36;9.70;94.80
5705;DHT22;2877;48.238;11.160;2022-12-29T09:15:02;9.90;95.20
5705;DHT22;2877;48.238;11.160;2022-12-29T09:17:27;9.90;95.60
5705;DHT22;2877;48.238;11.160;2022-12-29T09:20:13;10.10;95.10
5705;DHT22;2877;48.238;11.160;2022-12-29T09:22:39;10.20;95.50
5705;DHT22;2877;48.238;11.160;2022-12-29T09:25:06;10.20;95.80
5705;DHT22;2877;48.238;11.160;2022-12-29T09:27:31;10.20;95.50
5705;DHT22;2877;48.238;11.160;2022-12-29T09:29:57;10.30;94.80
5705;DHT22;2877;48.238;11.160;2022-12-29T09:32:23;10.30;95.30
5705;DHT22;2877;48.238;11.160;2022-12-29T09:34:48;10.40;95.20
5705;DHT22;2877;48.238;11.160;2022-12-29T09:37:14;10.40;95.60
5705;DHT22;2877;48.238;11.160;2022-12-29T09:39:39;10.40;95.80
5705;DHT22;2877;48.238;11.160;2022-12-29T09:45:14;10.50;96.20
5705;DHT22;2877;48.238;11.160;2022-12-29T09:47:42;10.40;96.50
5705;DHT22;2877;48.238;11.160;2022-12-29T09:52:52;10.50;96.00
5705;DHT22;2877;48.238;11.160;2022-12-29T09:55:30;10.50;95.80
5705;DHT22;2877;48.238;11.160;2022-12-29T09:58:02;10.60;95.00
5705;DHT22;2877;48.238;11.160;2022-12-29T10:00:38;10.60;94.60
5705;DHT22;2877;48.238;11.160;2022-12-29T10:03:16;10.60;94.90
5705;DHT22;2877;48.238;11.160;2022-12-29T10:08:48;10.70;93.50
5705;DHT22;2877;48.238;11.160;2022-12-29T10:24:53;10.60;91.20
5705;DHT22;2877;48.238;11.160;2022-12-29T10:27:20;10.40;91.10
5705;DHT22;2877;48.238;11.160;2022-12-29T10:29:53;10.20;89.40
5705;DHT22;2877;48.238;11.160;2022-12-29T10:32:50;10.10;89.80
5705;DHT22;2877;48.238;11.160;2022-12-29T10:35:34;10.10;90.00
5705;DHT22;2877;48.238;11.160;2022-12-29T10:40:58;10.00;90.30
5705;DHT22;2877;48.238;11.160;2022-12-29T10:43:30;10.00;90.30
5705;DHT22;2877;48.238;11.160;2022-12-29T10:46:02;10.10;90.60
5705;DHT22;2877;48.238;11.160;2022-12-29T10:48:33;10.20;90.60
5705;DHT22;2877;48.238;11.160;2022-12-29T10:51:01;10.20;90.40
5705;DHT22;2877;48.238;11.160;2022-12-29T10:54:06;10.20;90.40
5705;DHT22;2877;48.238;11.160;2022-12-29T10:56:39;10.20;90.40
5705;DHT22;2877;48.238;11.160;2022-12-29T10:59:25;10.20;90.20
5705;DHT22;2877;48.238;11.160;2022-12-29T11:07:10;10.20;90.50
5705;DHT22;2877;48.238;11.160;2022-12-29T11:09:38;10.20;90.70
5705;DHT22;2877;48.238;11.160;2022-12-29T11:12:26;10.30;91.10
5705;DHT22;2877;48.238;11.160;2022-12-29T11:15:12;10.30;91.40
5705;DHT22;2877;48.238;11.160;2022-12-29T11:17:57;10.40;91.30
5705;DHT22;2877;48.238;11.160;2022-12-29T11:20:36;10.40;91.30
5705;DHT22;2877;48.238;11.160;2022-12-29T11:23:03;10.50;90.80
5705;DHT22;2877;48.238;11.160;2022-12-29T11:25:29;10.40;91.20
5705;DHT22;2877;48.238;11.160;2022-12-29T11:28:15;10.50;90.40
5705;DHT22;2877;48.238;11.160;2022-12-29T11:30:42;10.60;90.30
5705;DHT22;2877;48.238;11.160;2022-12-29T11:33:09;10.70;89.80
5705;DHT22;2877;48.238;11.160;2022-12-29T11:35:41;10.80;90.30
5705;DHT22;2877;48.238;11.160;2022-12-29T11:38:19;10.80;90.20
5705;DHT22;2877;48.238;11.160;2022-12-29T11:40:45;10.90;89.00
5705;DHT22;2877;48.238;11.160;2022-12-29T11:43:27;10.90;89.50
5705;DHT22;2877;48.238;11.160;2022-12-29T11:45:56;11.00;89.70
5705;DHT22;2877;48.238;11.160;2022-12-29T11:48:22;11.10;89.10
5705;DHT22;2877;48.238;11.160;2022-12-29T11:50:55;11.10;89.50
5705;DHT22;2877;48.238;11.160;2022-12-29T11:53:27;11.10;88.20
5705;DHT22;2877;48.238;11.160;2022-12-29T11:56:04;11.20;88.80
5705;DHT22;2877;48.238;11.160;2022-12-29T11:58:37;11.30;86.50
5705;DHT22;2877;48.238;11.160;2022-12-29T12:01:13;11.40;87.40
5705;DHT22;2877;48.238;11.160;2022-12-29T12:03:48;11.50;87.20
5705;DHT22;2877;48.238;11.160;2022-12-29T12:06:19;11.50;89.00
5705;DHT22;2877;48.238;11.160;2022-12-29T12:08:54;11.60;87.60
5705;DHT22;2877;48.238;11.160;2022-12-29T12:11:32;11.70;88.60
5705;DHT22;2877;48.238;11.160;2022-12-29T12:17:30;12.00;89.20
5705;DHT22;2877;48.238;11.160;2022-12-29T12:20:32;12.10;88.50
5705;DHT22;2877;48.238;11.160;2022-12-29T12:28:52;12.10;87.70
5705;DHT22;2877;48.238;11.160;2022-12-29T12:34:08;12.40;87.20
5705;DHT22;2877;48.238;11.160;2022-12-29T12:40:07;12.50;89.40
5705;DHT22;2877;48.238;11.160;2022-12-29T12:42:49;12.50;90.10
5705;DHT22;2877;48.238;11.160;2022-12-29T12:45:50;12.40;91.00
5705;DHT22;2877;48.238;11.160;2022-12-29T12:54:04;12.30;90.90
5705;DHT22;2877;48.238;11.160;2022-12-29T12:56:47;12.20;91.40
5705;DHT22;2877;48.238;11.160;2022-12-29T13:02:20;12.20;91.20
5705;DHT22;2877;48.238;11.160;2022-12-29T13:10:53;12.10;90.30
5705;DHT22;2877;48.238;11.160;2022-12-29T13:13:48;12.10;90.40
5705;DHT22;2877;48.238;11.160;2022-12-29T13:16:36;12.00;90.00
5705;DHT22;2877;48.238;11.160;2022-12-29T13:19:27;12.00;90.30
5705;DHT22;2877;48.238;11.160;2022-12-29T13:22:25;12.00;90.20
5705;DHT22;2877;48.238;11.160;2022-12-29T13:25:21;11.90;90.70
5705;DHT22;2877;48.238;11.160;2022-12-29T13:30:40;11.80;90.90
5705;DHT22;2877;48.238;11.160;2022-12-29T13:36:16;11.70;90.50
5705;DHT22;2877;48.238;11.160;2022-12-29T13:38:46;11.70;90.90
5705;DHT22;2877;48.238;11.160;2022-12-29T13:41:29;11.70;90.70
5705;DHT22;2877;48.238;11.160;2022-12-29T13:43:57;11.70;91.30
5705;DHT22;2877;48.238;11.160;2022-12-29T13:46:29;11.60;90.90
5705;DHT22;2877;48.238;11.160;2022-12-29T13:49:27;11.60;91.00
5705;DHT22;2877;48.238;11.160;2022-12-29T13:51:57;11.60;91.30
5705;DHT22;2877;48.238;11.160;2022-12-29T14:00:03;11.50;90.90
5705;DHT22;2877;48.238;11.160;2022-12-29T14:07:56;11.30;91.80
5705;DHT22;2877;48.238;11.160;2022-12-29T14:12:51;11.30;92.00
5705;DHT22;2877;48.238;11.160;2022-12-29T14:15:22;11.30;92.00
5705;DHT22;2877;48.238;11.160;2022-12-29T14:18:05;11.30;91.90
5705;DHT22;2877;48.238;11.160;2022-12-29T14:20:34;11.20;92.20
5705;DHT22;2877;48.238;11.160;2022-12-29T14:28:39;11.00;93.00
5705;DHT22;2877;48.238;11.160;2022-12-29T14:36:39;10.90;93.40
5705;DHT22;2877;48.238;11.160;2022-12-29T14:44:45;10.80;93.60
5705;DHT22;2877;48.238;11.160;2022-12-29T14:47:37;10.80;93.70
5705;DHT22;2877;48.238;11.160;2022-12-29T14:53:01;10.60;94.10
5705;DHT22;2877;48.238;11.160;2022-12-29T14:55:46;10.60;94.30
5705;DHT22;2877;48.238;11.160;2022-12-29T14:58:26;10.60;94.40
5705;DHT22;2877;48.238;11.160;2022-12-29T15:00:53;10.50;94.30
5705;DHT22;2877;48.238;11.160;2022-12-29T15:03:25;10.40;94.70
5705;DHT22;2877;48.238;11.160;2022-12-29T15:05:56;10.30;94.90
5705;DHT22;2877;48.238;11.160;2022-12-29T15:08:25;10.30;95.20
5705;DHT22;2877;48.238;11.160;2022-12-29T15:11:13;10.20;95.20
5705;DHT22;2877;48.238;11.160;2022-12-29T15:13:41;10.20;94.70
5705;DHT22;2877;48.238;11.160;2022-12-29T15:16:29;10.20;95.20
5705;DHT22;2877;48.238;11.160;2022-12-29T15:18:56;10.10;94.60
5705;DHT22;2877;48.238;11.160;2022-12-29T15:21:29;10.20;94.50
5705;DHT22;2877;48.238;11.160;2022-12-29T15:23:55;10.20;95.00
5705;DHT22;2877;48.238;11.160;2022-12-29T15:26:22;10.10;94.70
5705;DHT22;2877;48.238;11.160;2022-12-29T15:28:50;10.10;94.70
5705;DHT22;2877;48.238;11.160;2022-12-29T15:31:21;10.10;94.90
5705;DHT22;2877;48.238;11.160;2022-12-29T15:33:53;10.00;95.40
5705;DHT22;2877;48.238;11.160;2022-12-29T15:36:27;10.10;95.60
5705;DHT22;2877;48.238;11.160;2022-12-29T15:38:53;10.00;94.90
5705;DHT22;2877;48.238;11.160;2022-12-29T15:41:43;10.00;95.00
5705;DHT22;2877;48.238;11.160;2022-12-29T15:46:55;10.00;95.60
5705;DHT22;2877;48.238;11.160;2022-12-29T15:49:21;9.90;96.30
5705;DHT22;2877;48.238;11.160;2022-12-29T15:51:49;9.90;96.20
5705;DHT22;2877;48.238;11.160;2022-12-29T15:54:21;9.80;96.60
5705;DHT22;2877;48.238;11.160;2022-12-29T15:56:48;9.80;96.90
5705;DHT22;2877;48.238;11.160;2022-12-29T15:59:28;9.80;97.50
5705;DHT22;2877;48.238;11.160;2022-12-29T16:01:55;9.80;97.60
5705;DHT22;2877;48.238;11.160;2022-12-29T16:04:22;9.80;97.40
5705;DHT22;2877;48.238;11.160;2022-12-29T16:07:04;9.90;97.50
5705;DHT22;2877;48.238;11.160;2022-12-29T16:09:35;9.90;97.80
5705;DHT22;2877;48.238;11.160;2022-12-29T16:12:16;9.90;97.70
5705;DHT22;2877;48.238;11.160;2022-12-29T16:14:45;9.80;97.80
5705;DHT22;2877;48.238;11.160;2022-12-29T16:17:21;9.80;97.80
5705;DHT22;2877;48.238;11.160;2022-12-29T16:19:54;9.70;98.90
5705;DHT22;2877;48.238;11.160;2022-12-29T16:22:46;9.70;99.10
5705;DHT22;2877;48.238;11.160;2022-12-29T16:25:30;9.80;99.00
5705;DHT22;2877;48.238;11.160;2022-12-29T16:28:00;9.90;98.70
5705;DHT22;2877;48.238;11.160;2022-12-29T16:30:30;9.90;98.90
5705;DHT22;2877;48.238;11.160;2022-12-29T16:32:58;9.90;99.50
5705;DHT22;2877;48.238;11.160;2022-12-29T16:35:26;9.90;99.20
5705;DHT22;2877;48.238;11.160;2022-12-29T16:38:21;9.90;99.40
5705;DHT22;2877;48.238;11.160;2022-12-29T16:43:28;10.00;99.20
5705;DHT22;2877;48.238;11.160;2022-12-29T16:48:32;10.00;99.90
5705;DHT22;2877;48.238;11.160;2022-12-29T16:51:03;10.00;99.90
5705;DHT22;2877;48.238;11.160;2022-12-29T16:53:34;10.00;99.90
5705;DHT22;2877;48.238;11.160;2022-12-29T16:56:13;10.10;99.90
5705;DHT22;2877;48.238;11.160;2022-12-29T16:58:39;10.10;99.90
5705;DHT22;2877;48.238;11.160;2022-12-29T17:01:06;10.10;99.90
5705;DHT22;2877;48.238;11.160;2022-12-29T17:03:42;10.10;99.90
5705;DHT22;2877;48.238;11.160;2022-12-29T17:06:15;10.10;99.90
5705;DHT22;2877;48.238;11.160;2022-12-29T17:08:42;10.10;99.90
5705;DHT22;2877;48.238;11.160;2022-12-29T17:11:28;10.10;99.90
5705;DHT22;2877;48.238;11.160;2022-12-29T17:14:36;10.00;99.90
5705;DHT22;2877;48.238;11.160;2022-12-29T17:17:08;9.90;99.90
5705;DHT22;2877;48.238;11.160;2022-12-29T17:19:37;9.90;99.90
5705;DHT22;2877;48.238;11.160;2022-12-29T17:22:09;9.80;99.90
5705;DHT22;2877;48.238;11.160;2022-12-29T17:24:37;9.70;99.90
5705;DHT22;2877;48.238;11.160;2022-12-29T17:27:03;9.70;99.90
5705;DHT22;2877;48.238;11.160;2022-12-29T17:29:32;9.70;99.90
5705;DHT22;2877;48.238;11.160;2022-12-29T17:32:00;9.70;99.90
5705;DHT22;2877;48.238;11.160;2022-12-29T17:34:26;9.60;99.90
5705;DHT22;2877;48.238;11.160;2022-12-29T17:36:52;9.70;99.90
5705;DHT22;2877;48.238;11.160;2022-12-29T17:39:17;9.60;99.90
5705;DHT22;2877;48.238;11.160;2022-12-29T17:41:43;9.60;99.90
5705;DHT22;2877;48.238;11.160;2022-12-29T17:44:15;9.60;99.90
5705;DHT22;2877;48.238;11.160;2022-12-29T17:46:41;9.70;99.90
5705;DHT22;2877;48.238;11.160;2022-12-29T17:49:16;9.70;99.90
5705;DHT22;2877;48.238;11.160;2022-12-29T17:51:45;9.70;99.90
5705;DHT22;2877;48.238;11.160;2022-12-29T17:54:22;9.70;99.90
5705;DHT22;2877;48.238;11.160;2022-12-29T17:56:49;9.70;99.90
5705;DHT22;2877;48.238;11.160;2022-12-29T17:59:15;9.70;99.90
5705;DHT22;2877;48.238;11.160;2022-12-29T18:01:42;9.70;99.90
5705;DHT22;2877;48.238;11.160;2022-12-29T18:04:15;9.80;99.90
5705;DHT22;2877;48.238;11.160;2022-12-29T18:06:41;9.80;99.90
5705;DHT22;2877;48.238;11.160;2022-12-29T18:09:07;9.90;99.90
5705;DHT22;2877;48.238;11.160;2022-12-29T18:11:38;9.80;99.90
5705;DHT22;2877;48.238;11.160;2022-12-29T18:14:09;9.80;99.90
5705;DHT22;2877;48.238;11.160;2022-12-29T18:16:35;9.70;99.90
5705;DHT22;2877;48.238;11.160;2022-12-29T18:19:01;9.70;99.90
5705;DHT22;2877;48.238;11.160;2022-12-29T18:21:26;9.70;99.90
5705;DHT22;2877;48.238;11.160;2022-12-29T18:23:52;9.70;99.90
5705;DHT22;2877;48.238;11.160;2022-12-29T18:26:23;9.60;99.90
5705;DHT22;2877;48.238;11.160;2022-12-29T18:28:49;9.50;99.90
5705;DHT22;2877;48.238;11.160;2022-12-29T18:31:19;9.50;99.90
5705;DHT22;2877;48.238;11.160;2022-12-29T18:33:46;9.50;99.90
5705;DHT22;2877;48.238;11.160;2022-12-29T18:36:13;9.50;99.90
5705;DHT22;2877;48.238;11.160;2022-12-29T18:38:39;9.50;99.90
5705;DHT22;2877;48.238;11.160;2022-12-29T18:41:05;9.40;99.90
5705;DHT22;2877;48.238;11.160;2022-12-29T18:43:31;9.40;99.90
5705;DHT22;2877;48.238;11.160;2022-12-29T18:45:56;9.30;99.90